createdAt,value
2016-12-16T00:09:17.772Z,277.1
2016-12-16T00:20:17.297Z,277.3
2016-12-16T00:31:18.054Z,276.6
2016-12-16T00:42:17.478Z,277.1
2016-12-16T00:53:17.072Z,277
2016-12-16T01:04:17.161Z,276.8
2016-12-16T01:15:17.743Z,277.2
2016-12-16T01:26:17.519Z,276.7
2016-12-16T01:37:17.732Z,277.2
2016-12-16T01:48:17.390Z,276.6
2016-12-16T01:59:17.423Z,277.1
2016-12-16T02:10:17.954Z,276.9
2016-12-16T02:21:17.565Z,276.7
2016-12-16T02:32:17.706Z,276.8
2016-12-16T02:43:18.062Z,277.1
2016-12-16T02:54:17.169Z,276.9
2016-12-16T03:05:17.691Z,276.9
2016-12-16T03:16:17.564Z,276.8
2016-12-16T03:27:17.392Z,277
2016-12-16T03:38:17.471Z,277
2016-12-16T03:49:17.195Z,276.8
2016-12-16T04:00:17.705Z,276.2
2016-12-16T04:11:16.880Z,276.7
2016-12-16T04:22:16.838Z,276.7
2016-12-16T04:33:17.587Z,276.5
2016-12-16T04:44:17.242Z,277.2
2016-12-16T04:55:16.861Z,276.9
2016-12-16T05:06:17.554Z,276.7
2016-12-16T05:17:17.361Z,276.5
2016-12-16T05:28:17.680Z,277.1
2016-12-16T05:39:17.152Z,276.3
2016-12-16T05:50:17.729Z,276.6
2016-12-16T06:01:17.329Z,276.6
2016-12-16T06:12:17.816Z,276.8
2016-12-16T06:23:16.785Z,277
2016-12-16T06:34:17.966Z,276.2
2016-12-16T06:45:17.740Z,277
2016-12-16T06:56:18.301Z,276.2
2016-12-16T07:07:17.539Z,276.2
2016-12-16T07:18:17.228Z,276.2
2016-12-16T07:29:18.104Z,276.6
2016-12-16T07:40:17.414Z,275.8
2016-12-16T07:51:17.252Z,275.9
2016-12-16T08:02:17.671Z,276.1
2016-12-16T08:13:16.784Z,276.3
2016-12-16T08:24:16.845Z,276.3
2016-12-16T08:35:17.744Z,276.4
2016-12-16T08:46:17.398Z,276.4
2016-12-16T08:57:17.469Z,276.8
2016-12-16T09:08:17.583Z,276.8
2016-12-16T09:19:16.993Z,276.4
2016-12-16T09:30:17.526Z,276.3
2016-12-16T09:41:17.988Z,277
2016-12-16T09:52:17.231Z,277.4
2016-12-16T10:03:17.762Z,277.2
2016-12-16T10:14:16.841Z,277.4
2016-12-16T10:25:17.800Z,277.5
2016-12-16T10:36:18.173Z,277.4
2016-12-16T10:47:17.077Z,277.6
2016-12-16T10:58:17.722Z,277.6
2016-12-16T11:09:17.390Z,277.3
2016-12-16T11:20:17.532Z,277.3
2016-12-16T11:31:17.552Z,277.4
2016-12-16T11:42:17.370Z,277.7
2016-12-16T11:53:17.406Z,277.9
2016-12-16T12:04:17.550Z,277
2016-12-16T12:15:17.355Z,277.7
2016-12-16T12:26:17.455Z,277.4
2016-12-16T12:37:17.391Z,278.1
2016-12-16T12:48:17.033Z,277.2
2016-12-16T12:59:16.963Z,277.6
2016-12-16T13:10:17.515Z,278.4
2016-12-16T13:21:17.023Z,277.7
2016-12-16T13:32:17.118Z,277.7
2016-12-16T13:43:17.535Z,280.1
2016-12-16T13:54:17.487Z,280.5
2016-12-16T14:05:17.717Z,279.1
2016-12-16T14:16:17.105Z,279.4
2016-12-16T14:27:17.480Z,279
2016-12-16T14:38:17.438Z,278.2
2016-12-16T14:49:17.771Z,278.2
2016-12-16T15:00:18.012Z,278.4
2016-12-16T15:11:17.705Z,277.9
2016-12-16T15:22:17.268Z,278.1
2016-12-16T15:33:17.862Z,277.2
2016-12-16T15:44:17.364Z,277.5
2016-12-16T15:55:16.910Z,276.8
2016-12-16T16:06:18.189Z,277.2
2016-12-16T16:17:18.129Z,277.2
2016-12-16T16:28:17.223Z,276.4
2016-12-16T16:39:17.575Z,277
2016-12-16T16:50:17.455Z,277.4
2016-12-16T17:01:17.057Z,276.5
2016-12-16T17:12:17.101Z,277.9
2016-12-16T17:23:17.444Z,277.1
2016-12-16T17:34:17.274Z,277.1
2016-12-16T17:45:16.966Z,277.5
2016-12-16T17:56:17.942Z,275.5
2016-12-16T18:07:18.759Z,278
2016-12-16T18:18:17.072Z,278
2016-12-16T18:29:17.846Z,278.6
2016-12-16T18:40:17.678Z,278.5
2016-12-16T18:51:17.662Z,279.1
2016-12-16T19:02:17.310Z,278.6
2016-12-16T19:13:16.999Z,278.9
2016-12-16T19:24:17.493Z,278.4
2016-12-16T19:35:17.510Z,278.4
2016-12-16T19:46:17.644Z,278.2
2016-12-16T19:57:16.854Z,277.9
2016-12-16T20:08:17.602Z,278.5
2016-12-16T20:14:17.436Z,278.4
2016-12-16T20:20:17.426Z,278.4
2016-12-16T20:26:17.387Z,278.2
2016-12-16T20:32:17.456Z,278.1
2016-12-16T20:38:17.646Z,278.1
2016-12-16T20:44:17.708Z,278.6
2016-12-16T20:50:17.929Z,277.9
2016-12-16T20:56:17.412Z,278
2016-12-16T21:02:17.535Z,278.1
2016-12-16T21:08:17.495Z,278.5
2016-12-16T21:14:17.556Z,278.5
2016-12-16T21:20:18.057Z,278.9
2016-12-16T21:26:17.713Z,278.2
2016-12-16T21:32:17.522Z,278
2016-12-16T21:38:17.560Z,278.8
2016-12-16T21:44:17.287Z,278.5
2016-12-16T21:50:17.613Z,278.6
2016-12-16T21:56:17.630Z,278
2016-12-16T22:02:17.140Z,278
2016-12-16T22:08:17.941Z,277.8
2016-12-16T22:14:17.697Z,278.4
2016-12-16T22:20:17.863Z,278
2016-12-16T22:26:17.841Z,277.3
2016-12-16T22:32:16.875Z,278
2016-12-16T22:38:17.725Z,277.9
2016-12-16T22:44:17.214Z,278.3
2016-12-16T22:50:17.360Z,278.1
2016-12-16T22:56:17.824Z,277.5
2016-12-16T23:02:17.392Z,277.9
2016-12-16T23:08:18.326Z,278
2016-12-16T23:14:17.373Z,277.6
2016-12-16T23:20:18.022Z,278.3
2016-12-16T23:26:17.604Z,278.1
2016-12-16T23:32:17.658Z,277.8
2016-12-16T23:38:17.429Z,278.3
2016-12-16T23:44:17.288Z,277.8
2016-12-16T23:50:17.524Z,278.1
2016-12-16T23:56:17.561Z,278.4
